Time;durP1;ratioP1;P1;durP2;ratioP2;P2;SDS_P1;SDS_P2;PMS_P1;PMS_P2;Temp;Humidity;BMP_temperature;BMP_pressure;BME280_temperature;BME280_humidity;BME280_pressure;Samples;Min_cycle;Max_cycle;Signal;HPM_P1;HPM_P2
2022/08/22 00:01:13;;;;;;;10.25;4.63;;;15.70;99.90;;;;;;5041516;28;20041;-68
2022/08/22 00:03:47;;;;;;;8.65;4.90;;;15.50;99.90;;;;;;5044029;28;20056;-68
2022/08/22 00:06:48;;;;;;;8.65;4.43;;;15.50;99.90;;;;;;5047674;28;20032;-68
2022/08/22 00:09:30;;;;;;;9.90;4.25;;;15.40;99.90;;;;;;5046492;28;20093;-68
2022/08/22 00:12:04;;;;;;;8.60;4.93;;;15.40;99.90;;;;;;5059915;28;20068;-68
2022/08/22 00:14:34;;;;;;;10.82;5.43;;;15.40;99.90;;;;;;5046834;28;20124;-68
2022/08/22 00:17:16;;;;;;;10.68;4.88;;;15.40;99.90;;;;;;5062323;28;20495;-68
2022/08/22 00:20:23;;;;;;;9.90;4.95;;;15.40;99.90;;;;;;5046639;28;20103;-68
2022/08/22 00:23:10;;;;;;;11.00;5.57;;;15.40;99.90;;;;;;5057686;28;20488;-68
2022/08/22 00:25:47;;;;;;;11.13;5.60;;;15.40;99.90;;;;;;5046213;28;20485;-68
2022/08/22 00:28:22;;;;;;;9.32;5.15;;;15.30;99.90;;;;;;5062947;28;20656;-68
2022/08/22 00:30:57;;;;;;;10.65;5.13;;;15.30;99.90;;;;;;5046161;28;20041;-68
2022/08/22 00:33:37;;;;;;;9.98;5.70;;;15.20;99.90;;;;;;5058909;28;20037;-68
2022/08/22 00:36:23;;;;;;;12.15;5.30;;;15.30;99.90;;;;;;5047291;28;20175;-68
2022/08/22 00:39:14;;;;;;;9.80;5.40;;;15.20;99.90;;;;;;5041051;28;20041;-68
2022/08/22 00:42:07;;;;;;;11.18;5.15;;;15.30;99.90;;;;;;5047240;28;20076;-68
2022/08/22 00:45:03;;;;;;;9.45;4.90;;;15.30;99.90;;;;;;5046970;28;20036;-68
2022/08/22 00:47:52;;;;;;;7.07;4.10;;;15.30;99.90;;;;;;5045193;28;20039;-68
2022/08/22 00:50:59;;;;;;;9.07;5.15;;;15.20;99.90;;;;;;5049274;28;20037;-68
2022/08/22 00:53:47;;;;;;;9.18;5.18;;;15.10;99.90;;;;;;5059761;28;20080;-68
2022/08/22 00:56:24;;;;;;;7.25;4.97;;;15.10;99.90;;;;;;5046926;28;20053;-68
2022/08/22 00:59:16;;;;;;;9.55;6.30;;;14.90;99.90;;;;;;5061363;28;20044;-68
2022/08/22 01:02:09;;;;;;;10.40;6.03;;;14.90;99.90;;;;;;5048131;28;20491;-68
2022/08/22 01:04:48;;;;;;;10.23;5.88;;;14.90;99.90;;;;;;5059338;28;20056;-68
2022/08/22 01:07:47;;;;;;;12.10;6.90;;;14.90;99.90;;;;;;5044678;28;20045;-68
2022/08/22 01:10:32;;;;;;;13.98;6.25;;;14.90;99.90;;;;;;5029795;28;20083;-68
2022/08/22 01:13:28;;;;;;;12.82;6.05;;;15.00;99.90;;;;;;5043536;28;20037;-68
2022/08/22 01:16:16;;;;;;;10.57;6.22;;;14.90;99.90;;;;;;5063287;28;20450;-68
2022/08/22 01:18:51;;;;;;;11.73;6.28;;;14.90;99.90;;;;;;5041834;28;20079;-68
2022/08/22 01:21:25;;;;;;;13.98;7.07;;;14.80;99.90;;;;;;5042014;28;21123;-68
2022/08/22 01:24:00;;;;;;;12.18;6.38;;;14.80;99.90;;;;;;5043624;28;20037;-69
2022/08/22 01:26:46;;;;;;;12.25;6.78;;;14.80;99.90;;;;;;5044686;28;20209;-68
2022/08/22 01:29:21;;;;;;;11.32;7.05;;;14.80;99.90;;;;;;5043139;28;20495;-68
2022/08/22 01:32:11;;;;;;;11.70;6.47;;;14.90;99.90;;;;;;5054786;28;20108;-68
2022/08/22 01:34:48;;;;;;;10.05;6.32;;;14.90;99.90;;;;;;5040483;28;20500;-69
2022/08/22 01:37:33;;;;;;;15.18;6.55;;;14.80;99.90;;;;;;5058491;28;20044;-69
2022/08/22 01:40:16;;;;;;;12.70;6.22;;;14.80;99.90;;;;;;5047527;28;20087;-68
2022/08/22 01:43:03;;;;;;;11.75;6.63;;;14.80;99.90;;;;;;5043423;28;20045;-68
2022/08/22 01:45:41;;;;;;;13.35;6.63;;;14.80;99.90;;;;;;5046818;28;20040;-68
2022/08/22 01:48:26;;;;;;;9.85;6.18;;;14.70;99.90;;;;;;5045982;28;20033;-68
2022/08/22 01:51:08;;;;;;;11.15;6.60;;;14.70;99.90;;;;;;5047159;28;20041;-68
2022/08/22 01:53:41;;;;;;;15.20;6.22;;;14.80;99.90;;;;;;5059226;28;20752;-68
2022/08/22 01:56:22;;;;;;;14.57;6.93;;;14.80;99.90;;;;;;5046046;28;20040;-69
2022/08/22 01:59:31;;;;;;;16.50;6.80;;;14.90;99.90;;;;;;5059368;28;20037;-69
2022/08/22 02:02:12;;;;;;;14.65;6.70;;;14.90;99.90;;;;;;5039702;28;20037;-68
2022/08/22 02:04:56;;;;;;;14.38;7.05;;;14.80;99.90;;;;;;5044491;28;20037;-68
2022/08/22 02:07:46;;;;;;;12.00;6.18;;;14.90;99.90;;;;;;5041793;28;20427;-68
2022/08/22 02:10:24;;;;;;;10.77;6.78;;;14.90;99.90;;;;;;5043550;28;20040;-68
2022/08/22 02:12:52;;;;;;;12.35;6.20;;;15.00;99.90;;;;;;5043360;28;20044;-68
2022/08/22 02:15:36;;;;;;;11.75;6.57;;;14.90;99.90;;;;;;5059332;28;20037;-68
2022/08/22 02:18:05;;;;;;;12.95;6.80;;;15.00;99.90;;;;;;5042584;28;20045;-68
2022/08/22 02:20:42;;;;;;;12.35;6.97;;;14.90;99.90;;;;;;5040516;28;20137;-68
2022/08/22 02:23:21;;;;;;;14.63;7.07;;;14.90;99.90;;;;;;5058711;28;20084;-68
2022/08/22 02:25:53;;;;;;;12.57;6.75;;;14.90;99.90;;;;;;5044539;28;20043;-68
2022/08/22 02:28:54;;;;;;;14.02;6.22;;;15.00;99.90;;;;;;5056880;28;20040;-68
2022/08/22 02:31:42;;;;;;;11.27;6.43;;;15.00;99.90;;;;;;5059697;28;21251;-68
2022/08/22 02:34:27;;;;;;;13.95;6.18;;;15.00;99.90;;;;;;5043160;28;20206;-68
2022/08/22 02:37:16;;;;;;;13.95;6.20;;;15.10;99.90;;;;;;5042484;28;20045;-68
2022/08/22 02:40:13;;;;;;;13.90;6.90;;;15.00;99.90;;;;;;5041131;28;20053;-68
2022/08/22 02:42:54;;;;;;;14.88;7.53;;;15.00;99.90;;;;;;5041696;28;20545;-69
2022/08/22 02:45:35;;;;;;;12.80;7.88;;;15.00;99.90;;;;;;5041872;28;20099;-68
2022/08/22 02:48:22;;;;;;;17.27;8.13;;;15.00;99.90;;;;;;5059000;28;20471;-68
2022/08/22 02:51:05;;;;;;;14.25;7.93;;;15.00;99.90;;;;;;5041737;28;20044;-68
2022/08/22 02:53:46;;;;;;;15.13;7.57;;;15.10;99.90;;;;;;5056187;28;20045;-68
2022/08/22 02:56:26;;;;;;;16.35;7.78;;;15.00;99.90;;;;;;5042657;28;20053;-68
2022/08/22 02:59:16;;;;;;;13.75;7.35;;;15.00;99.90;;;;;;5039562;28;20056;-68
2022/08/22 03:01:45;;;;;;;12.85;7.20;;;15.10;99.90;;;;;;5058961;28;20059;-68
2022/08/22 03:04:20;;;;;;;14.95;7.60;;;15.00;99.90;;;;;;5044168;28;20029;-68
2022/08/22 03:07:17;;;;;;;14.27;7.63;;;15.10;99.90;;;;;;5044342;28;20048;-68
2022/08/22 03:09:48;;;;;;;15.75;7.22;;;15.10;99.90;;;;;;5058734;28;20082;-68
2022/08/22 03:12:42;;;;;;;13.88;7.32;;;15.10;99.90;;;;;;5044663;28;20376;-68
2022/08/22 03:15:19;;;;;;;13.60;7.55;;;15.10;99.90;;;;;;5063091;28;20032;-68
2022/08/22 03:17:56;;;;;;;14.10;8.10;;;15.10;99.90;;;;;;5050799;28;20059;-68
2022/08/22 03:20:48;;;;;;;13.43;7.47;;;15.00;99.90;;;;;;5060287;28;20110;-68
2022/08/22 03:23:33;;;;;;;13.13;7.60;;;15.00;99.90;;;;;;5032901;28;20056;-68
2022/08/22 03:26:10;;;;;;;14.32;7.70;;;15.00;99.90;;;;;;5041274;28;20119;-68
2022/08/22 03:28:46;;;;;;;14.40;7.95;;;15.00;99.90;;;;;;5046871;28;20049;-68
2022/08/22 03:31:16;;;;;;;13.18;7.30;;;15.00;99.90;;;;;;5045827;28;20045;-68
2022/08/22 03:33:42;;;;;;;14.15;7.47;;;15.00;99.90;;;;;;5048487;28;20059;-67
2022/08/22 03:36:13;;;;;;;16.80;8.02;;;15.10;99.90;;;;;;5047471;28;20076;-68
2022/08/22 03:38:46;;;;;;;16.55;8.02;;;15.10;99.90;;;;;;5048506;28;20044;-68
2022/08/22 03:41:11;;;;;;;16.50;7.18;;;15.10;99.90;;;;;;5042383;28;20052;-68
2022/08/22 03:43:56;;;;;;;17.75;7.38;;;15.10;99.90;;;;;;5047830;28;20044;-67
2022/08/22 03:46:45;;;;;;;15.35;7.90;;;15.10;99.90;;;;;;5047376;28;20037;-68
2022/08/22 03:49:38;;;;;;;13.55;7.10;;;15.20;99.90;;;;;;5059575;28;20041;-68
2022/08/22 03:52:10;;;;;;;15.57;7.15;;;15.20;99.90;;;;;;5063610;28;20044;-68
2022/08/22 03:55:13;;;;;;;12.95;7.43;;;15.20;99.90;;;;;;5049979;28;20045;-68
2022/08/22 03:57:54;;;;;;;12.38;7.13;;;15.20;99.90;;;;;;5061740;28;20120;-68
2022/08/22 04:00:44;;;;;;;13.73;7.55;;;15.20;99.90;;;;;;5043913;28;20095;-68
2022/08/22 04:03:13;;;;;;;12.63;7.32;;;15.10;99.90;;;;;;5048019;28;20468;-68
2022/08/22 04:06:06;;;;;;;15.35;7.47;;;15.10;99.90;;;;;;5052209;28;20399;-68
2022/08/22 04:09:08;;;;;;;14.05;7.13;;;15.10;99.90;;;;;;5052308;28;20487;-68
2022/08/22 04:12:03;;;;;;;11.18;6.75;;;15.10;99.90;;;;;;5031831;28;20042;-68
2022/08/22 04:14:58;;;;;;;12.00;6.70;;;15.10;99.90;;;;;;5033948;28;20514;-68
2022/08/22 04:17:50;;;;;;;11.77;7.47;;;15.00;99.90;;;;;;5052151;28;20087;-68
2022/08/22 04:20:49;;;;;;;13.40;7.82;;;15.00;99.90;;;;;;5050769;28;20037;-68
2022/08/22 04:23:26;;;;;;;14.82;7.25;;;14.90;99.90;;;;;;5045574;28;20041;-68
2022/08/22 04:26:03;;;;;;;17.27;7.45;;;15.00;99.90;;;;;;5043083;28;20041;-68
2022/08/22 04:28:38;;;;;;;11.55;7.38;;;14.80;99.90;;;;;;5045408;28;20037;-68
2022/08/22 04:31:06;;;;;;;14.25;7.80;;;14.90;99.90;;;;;;5046632;28;20045;-68
2022/08/22 04:33:38;;;;;;;12.32;6.95;;;14.90;99.90;;;;;;5062681;28;20403;-68
2022/08/22 04:36:18;;;;;;;13.10;7.03;;;14.80;99.90;;;;;;5046425;28;20055;-68
2022/08/22 04:39:01;;;;;;;17.25;7.15;;;14.70;99.90;;;;;;5030233;28;20994;-68
2022/08/22 04:41:47;;;;;;;12.90;6.88;;;14.70;99.90;;;;;;5045303;28;20060;-68
2022/08/22 04:44:21;;;;;;;13.23;7.03;;;14.90;99.90;;;;;;5046483;28;20075;-68
2022/08/22 04:47:07;;;;;;;12.25;7.22;;;14.90;99.90;;;;;;5042850;28;21369;-68
2022/08/22 04:50:08;;;;;;;16.02;7.78;;;14.90;99.90;;;;;;5047455;28;20055;-68
2022/08/22 04:52:40;;;;;;;12.70;6.90;;;14.90;99.90;;;;;;5037839;28;20532;-68
2022/08/22 04:55:35;;;;;;;13.35;6.53;;;14.90;99.90;;;;;;5043759;28;20045;-68
2022/08/22 04:58:35;;;;;;;16.38;6.97;;;14.90;99.90;;;;;;5044302;28;20040;-68
2022/08/22 05:01:22;;;;;;;16.35;7.10;;;14.90;99.90;;;;;;5041324;28;20044;-68
2022/08/22 05:03:51;;;;;;;20.55;6.97;;;15.00;99.90;;;;;;5039410;28;20535;-68
2022/08/22 05:06:21;;;;;;;16.52;7.22;;;15.00;99.90;;;;;;5049096;28;20534;-68
2022/08/22 05:08:47;;;;;;;15.75;7.53;;;15.00;99.90;;;;;;5049853;28;20048;-68
2022/08/22 05:11:17;;;;;;;15.60;6.72;;;15.10;99.90;;;;;;5049543;28;20048;-68
2022/08/22 05:13:47;;;;;;;13.02;7.05;;;15.00;99.90;;;;;;5050640;28;20069;-68
2022/08/22 05:16:19;;;;;;;12.30;6.53;;;15.20;99.90;;;;;;5051569;28;20041;-68
2022/08/22 05:18:50;;;;;;;14.30;7.03;;;15.10;99.90;;;;;;5048398;28;20049;-68
2022/08/22 05:21:21;;;;;;;11.32;6.85;;;15.20;99.90;;;;;;5049739;28;20108;-68
2022/08/22 05:24:00;;;;;;;14.73;6.93;;;15.20;99.90;;;;;;5051156;28;20047;-68
2022/08/22 05:26:27;;;;;;;11.25;7.20;;;15.20;99.90;;;;;;5050667;28;20040;-68
2022/08/22 05:28:58;;;;;;;16.00;7.72;;;15.20;99.90;;;;;;5050183;28;20049;-68
2022/08/22 05:31:29;;;;;;;16.33;7.50;;;15.30;99.90;;;;;;5050147;28;20396;-68
2022/08/22 05:34:01;;;;;;;14.80;6.88;;;15.40;99.90;;;;;;5045960;28;20040;-68
2022/08/22 05:36:32;;;;;;;18.25;7.40;;;15.40;99.90;;;;;;5050712;28;20072;-68
2022/08/22 05:39:20;;;;;;;11.68;6.57;;;15.30;99.90;;;;;;5050649;28;20037;-68
2022/08/22 05:41:48;;;;;;;14.88;7.63;;;15.40;99.90;;;;;;5057066;28;20048;-68
2022/08/22 05:44:23;;;;;;;12.57;6.82;;;15.50;99.90;;;;;;5070720;28;20926;-68
2022/08/22 05:47:00;;;;;;;15.63;7.15;;;15.50;99.90;;;;;;5053795;28;20040;-68
2022/08/22 05:49:37;;;;;;;14.93;7.10;;;15.50;99.90;;;;;;5047484;28;20049;-68
2022/08/22 05:52:30;;;;;;;16.23;7.35;;;15.60;99.90;;;;;;5037625;28;20036;-68
2022/08/22 05:55:05;;;;;;;14.35;7.47;;;15.60;99.90;;;;;;5047637;28;20057;-67
2022/08/22 05:57:36;;;;;;;11.60;6.97;;;15.70;99.90;;;;;;5042287;28;20044;-68
2022/08/22 06:00:18;;;;;;;13.10;7.32;;;15.70;99.90;;;;;;5050040;28;20044;-68
2022/08/22 06:03:10;;;;;;;13.32;7.03;;;15.70;99.90;;;;;;5050114;28;20044;-68
2022/08/22 06:05:41;;;;;;;14.20;6.78;;;15.70;99.90;;;;;;5048419;28;20116;-68
2022/08/22 06:08:20;;;;;;;17.50;6.95;;;15.80;99.90;;;;;;5063846;28;20047;-68
2022/08/22 06:10:50;;;;;;;14.38;6.47;;;15.90;99.90;;;;;;5050470;28;20036;-68
2022/08/22 06:13:33;;;;;;;16.95;6.80;;;15.90;99.90;;;;;;5049227;28;20546;-68
2022/08/22 06:16:20;;;;;;;12.60;6.78;;;16.00;99.90;;;;;;5041912;28;20033;-68
2022/08/22 06:18:48;;;;;;;13.13;6.20;;;16.10;99.90;;;;;;5045083;28;20044;-68
2022/08/22 06:21:28;;;;;;;12.10;6.65;;;16.10;99.90;;;;;;5048973;28;20033;-68
2022/08/22 06:23:59;;;;;;;15.23;6.93;;;16.20;99.90;;;;;;5049444;28;20079;-68
2022/08/22 06:26:30;;;;;;;10.55;7.13;;;16.20;99.90;;;;;;5049528;28;20033;-68
2022/08/22 06:28:59;;;;;;;12.63;6.85;;;16.40;99.90;;;;;;5049304;28;20048;-67
2022/08/22 06:31:45;;;;;;;14.55;7.40;;;16.40;99.90;;;;;;5048660;28;20047;-68
2022/08/22 06:34:22;;;;;;;15.77;7.22;;;16.40;99.90;;;;;;5049454;28;20506;-68
2022/08/22 06:36:50;;;;;;;13.23;7.05;;;16.50;99.90;;;;;;5029757;28;20060;-67
2022/08/22 06:39:26;;;;;;;15.88;7.20;;;16.50;99.90;;;;;;5052904;28;20044;-68
2022/08/22 06:42:10;;;;;;;12.70;6.80;;;16.60;99.90;;;;;;5046153;28;20125;-68
2022/08/22 06:44:47;;;;;;;13.88;7.30;;;16.60;99.90;;;;;;5049099;28;20029;-68
2022/08/22 06:47:24;;;;;;;14.50;7.03;;;16.70;99.90;;;;;;5044220;28;20075;-68
2022/08/22 06:49:57;;;;;;;11.05;6.60;;;16.80;99.90;;;;;;5049610;28;20045;-68
2022/08/22 06:52:24;;;;;;;;;;;16.80;99.90;;;;;;5049009;28;20053;-68
2022/08/22 06:55:01;;;;;;;13.20;6.97;;;16.80;99.90;;;;;;5047607;28;20363;-68
2022/08/22 06:57:47;;;;;;;12.18;6.20;;;16.90;99.90;;;;;;5046982;28;20095;-68
2022/08/22 07:00:15;;;;;;;13.52;6.38;;;17.00;99.90;;;;;;5049115;28;20052;-68
2022/08/22 07:02:47;;;;;;;15.77;6.20;;;17.00;99.90;;;;;;5047050;28;20395;-68
2022/08/22 07:05:19;;;;;;;12.23;5.80;;;17.10;99.90;;;;;;5047019;28;20039;-68
2022/08/22 07:07:45;;;;;;;12.48;5.65;;;17.20;99.90;;;;;;5049107;28;20044;-68
2022/08/22 07:10:15;;;;;;;14.20;6.03;;;17.30;99.90;;;;;;5048863;28;20392;-68
2022/08/22 07:12:48;;;;;;;13.90;5.68;;;17.30;99.90;;;;;;5042898;28;20037;-68
2022/08/22 07:15:22;;;;;;;;;;;17.40;99.90;;;;;;5049571;28;20033;-68
2022/08/22 07:17:57;;;;;;;15.02;5.05;;;17.40;99.90;;;;;;5048724;28;20003;-68
2022/08/22 07:20:26;;;;;;;14.23;5.63;;;17.60;99.90;;;;;;5049099;28;20040;-68
2022/08/22 07:23:04;;;;;;;16.20;5.38;;;17.60;99.90;;;;;;5048909;28;20162;-68
2022/08/22 07:25:31;;;;;;;12.88;5.13;;;17.60;99.90;;;;;;5045854;28;20207;-68
2022/08/22 07:28:06;;;;;;;9.73;4.65;;;17.70;99.90;;;;;;5061642;28;20049;-67
2022/08/22 07:30:56;;;;;;;12.07;4.85;;;17.80;99.90;;;;;;5049087;28;20049;-68
2022/08/22 07:33:43;;;;;;;9.48;4.57;;;17.90;99.90;;;;;;5046044;28;20076;-68
2022/08/22 07:36:23;;;;;;;10.90;4.53;;;17.90;99.90;;;;;;5029082;28;20380;-68
2022/08/22 07:39:22;;;;;;;10.25;4.35;;;17.90;99.90;;;;;;5028887;28;20053;-68
2022/08/22 07:42:03;;;;;;;13.40;4.57;;;17.90;99.90;;;;;;5061976;28;20041;-68
2022/08/22 07:44:56;;;;;;;14.93;4.90;;;18.00;99.90;;;;;;5048954;28;20045;-68
2022/08/22 07:47:26;;;;;;;10.15;5.25;;;18.10;99.90;;;;;;5038695;28;20045;-68
2022/08/22 07:49:57;;;;;;;13.02;5.25;;;18.10;99.90;;;;;;5044379;28;20041;-68
2022/08/22 07:52:23;;;;;;;11.63;5.30;;;18.10;99.90;;;;;;5049051;28;20046;-68
2022/08/22 07:55:06;;;;;;;17.20;5.40;;;18.10;99.90;;;;;;5048691;28;20095;-68
2022/08/22 07:57:37;;;;;;;14.07;5.85;;;18.20;99.90;;;;;;5054723;28;20310;-68
2022/08/22 08:00:10;;;;;;;15.10;5.78;;;18.20;99.90;;;;;;5062337;28;20124;-67
2022/08/22 08:02:37;;;;;;;15.00;5.90;;;18.10;99.90;;;;;;5052223;28;20091;-68
2022/08/22 08:05:04;;;;;;;14.45;6.28;;;18.20;99.90;;;;;;5068668;28;20098;-68
2022/08/22 08:07:31;;;;;;;12.60;5.82;;;18.20;99.90;;;;;;5052005;28;20033;-68
2022/08/22 08:10:09;;;;;;;16.38;5.97;;;18.30;99.90;;;;;;5051899;28;20052;-68
2022/08/22 08:12:41;;;;;;;12.15;5.63;;;18.40;99.90;;;;;;5051389;28;20488;-68
2022/08/22 08:15:14;;;;;;;13.98;5.85;;;18.50;99.90;;;;;;5060995;28;20045;-68
2022/08/22 08:17:41;;;;;;;14.15;5.72;;;18.60;99.90;;;;;;5031957;28;20079;-68
2022/08/22 08:20:10;;;;;;;12.52;5.40;;;18.70;99.90;;;;;;5032222;28;20045;-68
2022/08/22 08:22:39;;;;;;;16.38;5.75;;;18.90;99.90;;;;;;5047077;28;20102;-67
2022/08/22 08:25:07;;;;;;;15.48;5.68;;;18.90;99.90;;;;;;5051480;28;20041;-67
2022/08/22 08:30:43;;;;;;;11.82;5.18;;;19.30;99.90;;;;;;5066386;28;20051;-67
2022/08/22 08:33:16;;;;;;;13.32;4.97;;;19.50;99.90;;;;;;5051542;28;20388;-68
2022/08/22 08:35:50;;;;;;;11.65;4.60;;;19.70;99.90;;;;;;5051604;28;20099;-68
2022/08/22 08:38:27;;;;;;;11.88;4.93;;;19.80;99.90;;;;;;5051602;28;20080;-68
2022/08/22 08:41:14;;;;;;;11.63;4.75;;;19.90;99.90;;;;;;5031873;28;20044;-68
2022/08/22 08:44:15;;;;;;;10.98;4.13;;;20.00;99.90;;;;;;5014908;28;20034;-68
2022/08/22 08:46:56;;;;;;;14.43;4.13;;;20.10;99.90;;;;;;5041573;28;20041;-68
2022/08/22 08:49:44;;;;;;;11.15;3.97;;;20.30;99.90;;;;;;5047402;28;20052;-69
2022/08/22 08:52:20;;;;;;;9.85;3.97;;;20.30;99.90;;;;;;5060460;28;20092;-67
2022/08/22 08:54:59;;;;;;;12.18;3.60;;;20.30;99.90;;;;;;5049857;28;20045;-68
2022/08/22 08:57:39;;;;;;;8.50;3.42;;;20.40;99.90;;;;;;5043883;28;20037;-69
2022/08/22 09:00:13;;;;;;;16.05;4.00;;;20.40;99.90;;;;;;5050559;28;20082;-68
2022/08/22 09:02:49;;;;;;;9.68;3.20;;;20.40;99.90;;;;;;5048825;28;20047;-68
2022/08/22 09:05:28;;;;;;;10.32;3.17;;;20.40;99.90;;;;;;5051174;28;20091;-68
2022/08/22 09:08:32;;;;;;;9.25;3.25;;;20.50;99.90;;;;;;5050784;28;20075;-68
2022/08/22 09:11:37;;;;;;;12.23;3.30;;;20.60;99.90;;;;;;5027090;28;20057;-69
2022/08/22 09:14:36;;;;;;;8.43;2.53;;;20.60;99.90;;;;;;5013175;28;20072;-69
2022/08/22 09:17:21;;;;;;;6.43;2.42;;;20.70;99.90;;;;;;5016667;28;20049;-70
2022/08/22 09:19:52;;;;;;;6.72;2.47;;;20.70;99.90;;;;;;5033820;28;20064;-69
2022/08/22 09:22:55;;;;;;;7.28;2.40;;;20.70;99.90;;;;;;5050447;28;20041;-69
2022/08/22 09:25:45;;;;;;;9.50;3.15;;;20.70;99.90;;;;;;5049365;28;20051;-69
2022/08/22 09:28:18;;;;;;;7.97;2.80;;;20.70;99.90;;;;;;5048871;28;20148;-69
2022/08/22 09:30:47;;;;;;;7.70;2.97;;;20.80;99.90;;;;;;5050415;28;20056;-70
2022/08/22 09:33:16;;;;;;;7.90;2.65;;;20.80;99.90;;;;;;5046889;28;20415;-69
2022/08/22 09:36:01;;;;;;;9.15;3.20;;;20.80;99.90;;;;;;5048217;28;20047;-69
2022/08/22 09:38:37;;;;;;;8.70;2.70;;;20.90;99.90;;;;;;5048870;28;20047;-71
2022/08/22 09:41:13;;;;;;;11.52;3.15;;;20.90;99.90;;;;;;5050139;28;20095;-69
2022/08/22 09:44:02;;;;;;;7.50;2.78;;;21.00;99.90;;;;;;5048317;28;20043;-70
2022/08/22 09:46:58;;;;;;;8.60;2.75;;;21.00;99.90;;;;;;5049642;28;20051;-70
2022/08/22 09:49:44;;;;;;;5.75;2.20;;;21.10;99.90;;;;;;5047976;28;20132;-70
2022/08/22 09:52:45;;;;;;;6.40;2.33;;;21.10;99.90;;;;;;5049715;28;20068;-70
2022/08/22 09:55:23;;;;;;;6.57;2.30;;;21.10;99.90;;;;;;5020323;28;20052;-70
2022/08/22 09:57:58;;;;;;;7.68;2.60;;;21.20;99.90;;;;;;5050462;28;20088;-70
2022/08/22 10:00:45;;;;;;;6.18;2.80;;;21.30;99.90;;;;;;5047159;28;20044;-70
2022/08/22 10:03:17;;;;;;;8.60;2.40;;;21.30;99.90;;;;;;5028212;28;20091;-70
2022/08/22 10:05:57;;;;;;;8.30;2.72;;;21.30;99.90;;;;;;5029796;28;20538;-71
2022/08/22 10:09:00;;;;;;;7.25;3.05;;;21.30;99.90;;;;;;5041346;28;20056;-72
2022/08/22 10:11:34;;;;;;;6.65;2.35;;;21.30;99.90;;;;;;5049081;28;20396;-71
2022/08/22 10:14:03;;;;;;;8.73;3.03;;;21.40;99.90;;;;;;5048630;28;20057;-71
2022/08/22 10:16:42;;;;;;;5.97;2.47;;;21.40;99.90;;;;;;5049303;28;20040;-70
2022/08/22 10:19:33;;;;;;;7.18;2.85;;;21.40;99.90;;;;;;5044668;28;20087;-71
2022/08/22 10:22:23;;;;;;;9.63;3.10;;;21.40;99.90;;;;;;5048084;28;20037;-70
2022/08/22 10:24:58;;;;;;;9.20;3.20;;;21.50;99.90;;;;;;5048285;28;20037;-72
2022/08/22 10:27:46;;;;;;;8.55;2.78;;;21.60;99.90;;;;;;5049806;28;20048;-70
2022/08/22 10:30:26;;;;;;;10.07;2.83;;;21.80;99.90;;;;;;5063810;28;20040;-72
2022/08/22 10:33:12;;;;;;;8.68;2.63;;;21.90;99.90;;;;;;5049065;28;20045;-71
2022/08/22 10:36:09;;;;;;;8.82;2.72;;;22.10;99.90;;;;;;5048856;28;20055;-72
2022/08/22 10:38:47;;;;;;;7.57;3.03;;;22.20;99.90;;;;;;5030169;28;20053;-70
2022/08/22 10:41:51;;;;;;;8.95;2.75;;;22.30;99.90;;;;;;5044685;28;20052;-71
2022/08/22 10:44:31;;;;;;;8.70;3.10;;;22.40;99.90;;;;;;5045423;28;20049;-70
2022/08/22 10:47:13;;;;;;;12.60;3.17;;;22.50;99.90;;;;;;5049520;28;20068;-70
2022/08/22 10:49:50;;;;;;;10.55;3.15;;;22.60;99.90;;;;;;5049392;28;20052;-72
2022/08/22 10:52:22;;;;;;;8.98;3.05;;;22.60;99.90;;;;;;5048673;28;20048;-71
2022/08/22 10:54:59;;;;;;;7.55;2.80;;;22.60;99.90;;;;;;5048957;28;20091;-71
2022/08/22 10:57:43;;;;;;;8.43;2.80;;;22.60;99.90;;;;;;5048482;28;20431;-71
2022/08/22 11:00:12;;;;;;;9.98;2.85;;;22.60;99.90;;;;;;5048963;28;20049;-71
2022/08/22 11:03:00;;;;;;;7.95;2.70;;;22.60;99.90;;;;;;5047688;28;20045;-72
2022/08/22 11:05:40;;;;;;;9.40;2.80;;;22.60;99.90;;;;;;5045726;28;20561;-71
2022/08/22 11:08:19;;;;;;;10.82;3.05;;;22.70;99.90;;;;;;5046482;28;20038;-71
2022/08/22 11:10:54;;;;;;;6.28;2.85;;;22.80;99.90;;;;;;5028892;28;20352;-71
2022/08/22 11:13:57;;;;;;;10.10;2.65;;;22.90;99.90;;;;;;5046969;28;20070;-70
2022/08/22 11:16:28;;;;;;;;;;;23.00;99.90;;;;;;5060849;28;20051;-72
2022/08/22 11:19:10;;;;;;;8.68;3.10;;;23.10;99.90;;;;;;5065824;28;19921;-72
2022/08/22 11:22:03;;;;;;;6.28;2.83;;;23.20;99.90;;;;;;5047489;28;20099;-71
2022/08/22 11:24:32;;;;;;;4.95;2.50;;;23.40;99.90;;;;;;5045511;28;20045;-72
2022/08/22 11:27:41;;;;;;;7.15;2.70;;;23.60;99.90;;;;;;5045527;28;20041;-71
2022/08/22 11:30:18;;;;;;;9.52;2.40;;;23.70;99.90;;;;;;5060203;28;20113;-70
2022/08/22 11:33:14;;;;;;;8.75;2.47;;;23.60;99.90;;;;;;5049695;28;20511;-71
2022/08/22 11:35:53;;;;;;;9.48;2.58;;;23.50;99.90;;;;;;5042220;28;20258;-71
2022/08/22 11:38:36;;;;;;;9.70;2.90;;;23.50;99.90;;;;;;5046825;28;20076;-72
2022/08/22 11:41:13;;;;;;;7.32;2.67;;;23.30;99.90;;;;;;5047054;28;20044;-73
2022/08/22 11:43:51;;;;;;;9.10;2.80;;;23.30;99.90;;;;;;5045766;28;20488;-71
2022/08/22 11:46:19;;;;;;;8.35;2.47;;;23.20;99.90;;;;;;5045696;28;20444;-72
2022/08/22 11:49:13;;;;;;;9.13;2.40;;;23.20;99.90;;;;;;5064848;28;20119;-72
2022/08/22 11:51:57;;;;;;;7.00;2.45;;;23.20;99.90;;;;;;5048309;28;20455;-71
2022/08/22 11:54:40;;;;;;;5.72;2.40;;;23.30;99.90;;;;;;5047256;28;20120;-72
2022/08/22 11:57:18;;;;;;;10.75;3.00;;;23.20;99.90;;;;;;5050709;28;20407;-72
2022/08/22 11:59:51;;;;;;;6.85;2.38;;;23.20;99.90;;;;;;5061773;28;20462;-71
2022/08/22 12:02:38;;;;;;;8.30;2.40;;;23.20;99.90;;;;;;5045607;28;20124;-72
2022/08/22 12:05:15;;;;;;;6.05;2.30;;;23.30;99.90;;;;;;5060877;28;20041;-72
2022/08/22 12:07:50;;;;;;;11.52;2.63;;;23.30;99.90;;;;;;5048462;28;20033;-72
2022/08/22 12:10:20;;;;;;;8.48;2.88;;;23.40;99.90;;;;;;5049446;28;20071;-74
2022/08/22 12:13:07;;;;;;;8.45;2.80;;;23.50;99.90;;;;;;5049868;28;20102;-72
2022/08/22 12:15:59;;;;;;;10.43;2.70;;;23.50;99.90;;;;;;5047958;28;20488;-71
2022/08/22 12:18:30;;;;;;;8.40;2.25;;;23.50;99.90;;;;;;5047684;28;20128;-71
2022/08/22 12:21:31;;;;;;;8.38;2.65;;;23.60;99.90;;;;;;5046424;28;20044;-71
2022/08/22 12:24:21;;;;;;;9.27;2.65;;;23.70;99.90;;;;;;5052180;28;20044;-70
2022/08/22 12:27:13;;;;;;;7.78;2.45;;;23.70;99.90;;;;;;5050535;28;20076;-72
2022/08/22 12:29:57;;;;;;;8.68;2.40;;;23.80;99.90;;;;;;5047095;28;20120;-70
2022/08/22 12:32:53;;;;;;;7.07;2.70;;;24.00;99.90;;;;;;5049969;28;20488;-71
2022/08/22 12:35:28;;;;;;;5.63;2.42;;;24.00;99.90;;;;;;5044828;28;20053;-70
2022/08/22 12:38:10;;;;;;;8.38;2.70;;;24.00;99.90;;;;;;5051592;28;20045;-71
2022/08/22 12:40:39;;;;;;;6.20;2.83;;;24.00;99.90;;;;;;5046523;28;20033;-73
2022/08/22 12:43:42;;;;;;;6.65;2.80;;;24.00;99.90;;;;;;5050450;28;20033;-72
2022/08/22 12:46:16;;;;;;;8.70;2.78;;;24.00;99.90;;;;;;5046583;28;20036;-73
2022/08/22 12:48:47;;;;;;;8.55;2.97;;;24.10;99.90;;;;;;5046775;28;20043;-72
2022/08/22 12:51:44;;;;;;;6.60;2.53;;;24.20;99.90;;;;;;5045693;28;20098;-72
2022/08/22 12:54:19;;;;;;;9.50;2.88;;;24.30;99.90;;;;;;5045757;28;20070;-72
2022/08/22 12:57:23;;;;;;;8.32;2.70;;;24.30;99.90;;;;;;5049742;28;20045;-73
2022/08/22 12:59:53;;;;;;;6.88;2.72;;;24.40;99.90;;;;;;5043506;28;20852;-72
2022/08/22 13:02:31;;;;;;;10.20;2.70;;;24.20;99.90;;;;;;5062634;28;20044;-72
2022/08/22 13:05:01;;;;;;;9.43;2.90;;;24.20;99.90;;;;;;5059962;28;20109;-73
2022/08/22 13:07:40;;;;;;;3.97;2.30;;;24.20;99.90;;;;;;5046221;28;20396;-72
2022/08/22 13:10:14;;;;;;;7.97;2.80;;;24.20;99.90;;;;;;5047248;28;20087;-73
2022/08/22 13:12:52;;;;;;;6.70;2.90;;;24.20;99.90;;;;;;5043008;28;20052;-72
2022/08/22 13:15:35;;;;;;;7.68;2.58;;;24.00;99.90;;;;;;5044601;28;20037;-72
2022/08/22 13:18:11;;;;;;;7.47;2.92;;;23.90;99.90;;;;;;5043798;28;20114;-73
2022/08/22 13:20:40;;;;;;;7.25;3.00;;;23.90;99.90;;;;;;5044956;28;20039;-73
2022/08/22 13:23:23;;;;;;;7.25;3.00;;;23.80;99.90;;;;;;5050099;28;20133;-71
2022/08/22 13:25:59;;;;;;;7.22;2.90;;;23.90;99.90;;;;;;5035710;28;20104;-72
2022/08/22 13:28:28;;;;;;;8.32;3.20;;;24.00;99.90;;;;;;5043861;28;20055;-72
2022/08/22 13:30:56;;;;;;;8.07;2.92;;;24.10;99.90;;;;;;5061430;28;20538;-72
2022/08/22 13:33:26;;;;;;;6.07;2.97;;;24.10;99.90;;;;;;5042402;28;20063;-73
2022/08/22 13:35:55;;;;;;;7.53;3.35;;;24.00;99.90;;;;;;5045071;28;20033;-72
2022/08/22 13:38:43;;;;;;;5.85;2.80;;;24.00;99.90;;;;;;5045888;28;20470;-73
2022/08/22 13:41:09;;;;;;;8.25;2.88;;;23.90;99.90;;;;;;5058019;28;20052;-72
2022/08/22 13:43:58;;;;;;;6.40;2.88;;;23.90;99.90;;;;;;5045576;28;20048;-72
2022/08/22 13:46:29;;;;;;;6.93;2.80;;;23.90;99.90;;;;;;5041945;28;20120;-72
2022/08/22 13:48:57;;;;;;;9.55;2.88;;;24.00;99.90;;;;;;5046051;28;20041;-72
2022/08/22 13:51:49;;;;;;;8.10;3.15;;;24.10;99.90;;;;;;5057897;28;20541;-73